Time;durP1;ratioP1;P1;durP2;ratioP2;P2;SDS_P1;SDS_P2;PMS_P1;PMS_P2;Temp;Humidity;BMP_temperature;BMP_pressure;BME280_temperature;BME280_humidity;BME280_pressure;Samples;Min_cycle;Max_cycle;Signal;HPM_P1;HPM_P2
2022/11/13 00:00:27;;;;;;;17.63;13.52;;;7.90;99.90;;;;;;5086268;28;20468;-65
2022/11/13 00:02:53;;;;;;;16.63;14.85;;;7.80;99.90;;;;;;5080599;28;20077;-65
2022/11/13 00:05:19;;;;;;;17.30;15.45;;;7.80;99.90;;;;;;5083623;28;20135;-65
2022/11/13 00:07:44;;;;;;;18.02;14.98;;;7.80;99.90;;;;;;5082416;28;20035;-65
2022/11/13 00:10:10;;;;;;;17.77;15.27;;;7.80;99.90;;;;;;5066689;28;20035;-65
2022/11/13 00:12:35;;;;;;;18.40;15.43;;;7.80;99.90;;;;;;5085966;28;20097;-65
2022/11/13 00:15:01;;;;;;;19.08;15.75;;;7.80;99.90;;;;;;5079966;28;20036;-65
2022/11/13 00:17:27;;;;;;;18.50;14.85;;;7.90;99.90;;;;;;5068497;28;20119;-64
2022/11/13 00:19:53;;;;;;;17.60;14.63;;;7.90;99.90;;;;;;5088189;28;20516;-66
2022/11/13 00:22:19;;;;;;;17.40;14.98;;;7.90;99.90;;;;;;5086237;28;20047;-65
2022/11/13 00:24:45;;;;;;;16.70;14.90;;;7.90;99.90;;;;;;5066884;28;20059;-67
2022/11/13 00:27:11;;;;;;;17.52;15.48;;;8.00;99.90;;;;;;5080762;28;20028;-65
2022/11/13 00:29:36;;;;;;;17.20;14.98;;;7.90;99.90;;;;;;5067800;28;20115;-64
2022/11/13 00:32:02;;;;;;;16.25;14.52;;;7.90;99.90;;;;;;5085664;28;20097;-64
2022/11/13 00:34:27;;;;;;;17.83;15.88;;;8.00;99.90;;;;;;5083083;28;20088;-64
2022/11/13 00:36:53;;;;;;;19.35;15.82;;;8.00;99.90;;;;;;5081501;28;20051;-65
2022/11/13 00:39:19;;;;;;;18.83;15.70;;;8.00;99.90;;;;;;5062720;28;20051;-65
2022/11/13 00:41:44;;;;;;;16.83;15.00;;;8.00;99.90;;;;;;5066534;28;20371;-65
2022/11/13 00:44:10;;;;;;;17.02;14.85;;;7.90;99.90;;;;;;5082304;28;20759;-66
2022/11/13 00:46:35;;;;;;;16.60;14.70;;;7.90;99.90;;;;;;5069322;28;20038;-65
2022/11/13 00:49:01;;;;;;;17.45;14.75;;;7.80;99.90;;;;;;5087456;28;20043;-65
2022/11/13 00:51:27;;;;;;;18.75;14.38;;;7.80;99.90;;;;;;5084671;28;20333;-65
2022/11/13 00:53:52;;;;;;;16.73;14.93;;;7.80;99.90;;;;;;5083129;28;20040;-65
2022/11/13 00:56:18;;;;;;;17.40;14.80;;;7.70;99.90;;;;;;5080680;28;20071;-64
2022/11/13 00:58:44;;;;;;;19.17;14.43;;;7.70;99.90;;;;;;5079577;28;21179;-67
2022/11/13 01:01:13;;;;;;;16.02;13.95;;;7.70;99.90;;;;;;5086874;28;20042;-66
2022/11/13 01:03:39;;;;;;;16.20;13.73;;;7.80;99.90;;;;;;5081200;28;20405;-66
2022/11/13 01:06:11;;;;;;;19.15;15.07;;;7.80;99.90;;;;;;5082186;28;20477;-65
2022/11/13 01:08:36;;;;;;;16.48;14.68;;;7.80;99.90;;;;;;5083401;28;20456;-66
2022/11/13 01:11:14;;;;;;;16.98;14.73;;;7.80;99.90;;;;;;5085231;28;20038;-65
2022/11/13 01:13:41;;;;;;;16.10;14.43;;;7.80;99.90;;;;;;5081750;28;20039;-64
2022/11/13 01:16:09;;;;;;;17.85;14.05;;;7.80;99.90;;;;;;5084310;28;20036;-65
2022/11/13 01:18:35;;;;;;;15.23;13.57;;;7.70;99.90;;;;;;5082119;28;20086;-65
2022/11/13 01:21:12;;;;;;;16.75;13.73;;;7.70;99.90;;;;;;5084771;28;20059;-65
2022/11/13 01:23:38;;;;;;;14.75;13.23;;;7.70;99.90;;;;;;5087881;28;20429;-65
2022/11/13 01:26:17;;;;;;;15.23;13.68;;;7.70;99.90;;;;;;5078212;28;20057;-67
2022/11/13 01:28:44;;;;;;;16.75;13.80;;;7.60;99.90;;;;;;5084470;28;20046;-66
2022/11/13 01:31:22;;;;;;;19.85;15.05;;;7.60;99.90;;;;;;5087022;28;20050;-65
2022/11/13 01:33:49;;;;;;;15.88;14.18;;;7.70;99.90;;;;;;5083985;28;20035;-64
2022/11/13 01:36:19;;;;;;;17.38;14.50;;;7.60;99.90;;;;;;5086003;28;20062;-65
2022/11/13 01:38:47;;;;;;;15.50;13.90;;;7.70;99.90;;;;;;5098567;28;20058;-65
2022/11/13 01:41:17;;;;;;;16.55;13.68;;;7.70;99.90;;;;;;5083909;28;20479;-65
2022/11/13 01:43:42;;;;;;;15.18;13.23;;;7.70;99.90;;;;;;5064388;28;20758;-64
2022/11/13 01:46:37;;;;;;;15.73;14.07;;;7.70;99.90;;;;;;5082401;28;20055;-65
2022/11/13 01:49:09;;;;;;;17.58;13.82;;;7.80;99.90;;;;;;5083979;28;20035;-65
2022/11/13 01:51:47;;;;;;;16.70;13.45;;;7.80;99.90;;;;;;5082592;28;20076;-64
2022/11/13 01:54:17;;;;;;;15.68;13.48;;;7.80;99.90;;;;;;5068898;28;20341;-65
2022/11/13 01:56:43;;;;;;;15.35;13.52;;;7.80;99.90;;;;;;5082877;28;20075;-65
2022/11/13 01:59:14;;;;;;;19.35;15.40;;;7.80;99.90;;;;;;5084346;28;20486;-67
2022/11/13 02:01:40;;;;;;;18.17;14.95;;;7.80;99.90;;;;;;5081491;28;20048;-65
2022/11/13 02:04:06;;;;;;;14.90;13.32;;;7.70;99.90;;;;;;5084182;28;20031;-65
2022/11/13 02:06:42;;;;;;;17.02;13.55;;;7.70;99.90;;;;;;5077780;28;20051;-65
2022/11/13 02:09:09;;;;;;;17.77;13.70;;;7.60;99.90;;;;;;5085858;28;20043;-64
2022/11/13 02:11:36;;;;;;;16.42;13.02;;;7.60;99.90;;;;;;5083286;28;20035;-64
2022/11/13 02:14:04;;;;;;;14.48;12.68;;;7.60;99.90;;;;;;5079352;28;20090;-64
2022/11/13 02:16:31;;;;;;;16.17;13.23;;;7.60;99.90;;;;;;5082274;28;20308;-64
2022/11/13 02:18:58;;;;;;;14.18;12.68;;;7.50;99.90;;;;;;5082237;28;20048;-65
2022/11/13 02:21:45;;;;;;;15.15;12.75;;;7.50;99.90;;;;;;5079545;28;20080;-64
2022/11/13 02:24:40;;;;;;;16.30;13.32;;;7.50;99.90;;;;;;5083595;28;20096;-65
2022/11/13 02:27:10;;;;;;;13.77;12.27;;;7.50;99.90;;;;;;5067489;28;20032;-65
2022/11/13 02:29:36;;;;;;;14.25;12.13;;;7.50;99.90;;;;;;5064732;28;20040;-65
2022/11/13 02:32:01;;;;;;;15.10;12.77;;;7.50;99.90;;;;;;5086747;28;20055;-64
2022/11/13 02:34:27;;;;;;;14.90;12.75;;;7.50;99.90;;;;;;5079670;28;20036;-65
2022/11/13 02:36:53;;;;;;;15.60;12.70;;;7.50;99.90;;;;;;5086540;28;20365;-65
2022/11/13 02:39:19;;;;;;;14.90;12.05;;;7.50;99.90;;;;;;5084485;28;20052;-65
2022/11/13 02:41:44;;;;;;;14.85;11.90;;;7.50;99.90;;;;;;5101221;28;20039;-66
2022/11/13 02:44:10;;;;;;;13.50;11.73;;;7.60;99.90;;;;;;5083048;28;20039;-65
2022/11/13 02:46:36;;;;;;;15.30;12.63;;;7.60;99.90;;;;;;5081530;28;20055;-66
2022/11/13 02:49:01;;;;;;;13.90;12.40;;;7.60;99.90;;;;;;5085799;28;20040;-64
2022/11/13 02:51:27;;;;;;;13.20;11.82;;;7.60;99.90;;;;;;5082930;28;20035;-65
2022/11/13 02:53:53;;;;;;;14.25;12.75;;;7.50;99.90;;;;;;5080176;28;20185;-65
2022/11/13 02:56:19;;;;;;;14.90;13.10;;;7.50;99.90;;;;;;5082957;28;20035;-64
2022/11/13 02:58:44;;;;;;;16.08;13.15;;;7.50;99.90;;;;;;5066955;28;20380;-67
2022/11/13 03:01:10;;;;;;;17.80;13.57;;;7.40;99.90;;;;;;5080347;28;20475;-65
2022/11/13 03:03:36;;;;;;;16.63;13.18;;;7.40;99.90;;;;;;5081426;28;20399;-64
2022/11/13 03:06:01;;;;;;;14.95;12.95;;;7.30;99.90;;;;;;5078991;28;20387;-65
2022/11/13 03:08:27;;;;;;;14.52;12.38;;;7.30;99.90;;;;;;5085786;28;20042;-64
2022/11/13 03:10:53;;;;;;;14.98;12.10;;;7.20;99.90;;;;;;5083260;28;20039;-64
2022/11/13 03:13:19;;;;;;;15.73;12.77;;;7.20;99.90;;;;;;5079705;28;20044;-64
2022/11/13 03:15:44;;;;;;;15.13;12.57;;;7.20;99.90;;;;;;5079853;28;20043;-68
2022/11/13 03:18:11;;;;;;;14.10;12.60;;;7.20;99.90;;;;;;5083507;28;20035;-65
2022/11/13 03:20:38;;;;;;;13.70;11.60;;;7.20;99.90;;;;;;5084544;28;20104;-66
2022/11/13 03:23:04;;;;;;;13.68;11.73;;;7.20;99.90;;;;;;5086221;28;20035;-64
2022/11/13 03:25:30;;;;;;;13.10;11.77;;;7.30;99.90;;;;;;5069456;28;20126;-65
2022/11/13 03:27:56;;;;;;;14.15;12.02;;;7.30;99.90;;;;;;5070141;28;20110;-64
2022/11/13 03:30:21;;;;;;;15.02;11.68;;;7.30;99.90;;;;;;5087690;28;20042;-64
2022/11/13 03:32:47;;;;;;;14.20;11.32;;;7.30;99.90;;;;;;5067239;28;20071;-65
2022/11/13 03:35:13;;;;;;;13.05;11.65;;;7.30;99.90;;;;;;5084982;28;20051;-65
2022/11/13 03:37:38;;;;;;;13.23;11.70;;;7.30;99.90;;;;;;5085560;28;20048;-64
2022/11/13 03:40:04;;;;;;;15.48;11.43;;;7.30;99.90;;;;;;5069593;28;20653;-65
2022/11/13 03:42:30;;;;;;;13.38;11.10;;;7.30;99.90;;;;;;5083222;28;20509;-65
2022/11/13 03:44:55;;;;;;;13.18;11.10;;;7.30;99.90;;;;;;5081772;28;20131;-65
2022/11/13 03:47:21;;;;;;;14.57;12.07;;;7.30;99.90;;;;;;5083766;28;20470;-64
2022/11/13 03:49:47;;;;;;;12.48;11.15;;;7.30;99.90;;;;;;5082634;28;20065;-65
2022/11/13 03:52:12;;;;;;;14.50;12.15;;;7.30;99.90;;;;;;5069036;28;20075;-66
2022/11/13 03:54:38;;;;;;;14.05;11.35;;;7.30;99.90;;;;;;5082504;28;20028;-65
2022/11/13 03:57:03;;;;;;;13.77;12.32;;;7.30;99.90;;;;;;5082322;28;20040;-65
2022/11/13 03:59:29;;;;;;;13.02;11.63;;;7.30;99.90;;;;;;5086275;28;20545;-64
2022/11/13 04:01:55;;;;;;;13.15;11.68;;;7.30;99.90;;;;;;5085109;28;20043;-65
2022/11/13 04:04:21;;;;;;;14.05;12.15;;;7.30;99.90;;;;;;5085638;28;20041;-64
2022/11/13 04:06:46;;;;;;;13.30;11.88;;;7.20;99.90;;;;;;5085281;28;20035;-65
2022/11/13 04:09:12;;;;;;;14.32;11.45;;;7.20;99.90;;;;;;5084693;28;20031;-64
2022/11/13 04:11:37;;;;;;;15.18;12.10;;;7.20;99.90;;;;;;5086137;28;20067;-64
2022/11/13 04:14:03;;;;;;;12.82;11.48;;;7.20;99.90;;;;;;5083090;28;20051;-66
2022/11/13 04:16:28;;;;;;;14.65;11.20;;;7.20;99.90;;;;;;5082328;28;20032;-64
2022/11/13 04:18:54;;;;;;;14.35;11.48;;;7.20;99.90;;;;;;5078954;28;20480;-65
2022/11/13 04:21:19;;;;;;;12.52;11.25;;;7.20;99.90;;;;;;5084697;28;20496;-66
2022/11/13 04:23:45;;;;;;;13.25;11.50;;;7.10;99.90;;;;;;5088523;28;20460;-64
2022/11/13 04:26:11;;;;;;;13.55;10.88;;;7.10;99.90;;;;;;5065557;28;20177;-64
2022/11/13 04:28:36;;;;;;;12.25;10.70;;;7.00;99.90;;;;;;5090359;28;20177;-64
2022/11/13 04:31:02;;;;;;;12.63;11.20;;;7.00;99.90;;;;;;5082819;28;20135;-65
2022/11/13 04:33:28;;;;;;;13.15;11.40;;;7.10;99.90;;;;;;5068148;28;20039;-64
2022/11/13 04:35:53;;;;;;;11.93;10.63;;;7.10;99.90;;;;;;5083504;28;20146;-64
2022/11/13 04:38:19;;;;;;;12.15;10.85;;;7.00;99.90;;;;;;5087227;28;20463;-65
2022/11/13 04:40:48;;;;;;;11.77;10.50;;;7.00;99.90;;;;;;5065907;28;20052;-66
2022/11/13 04:43:14;;;;;;;13.48;11.35;;;7.00;99.90;;;;;;5045146;28;20048;-66
2022/11/13 04:45:39;;;;;;;12.48;10.82;;;7.00;99.90;;;;;;5062218;28;20032;-65
2022/11/13 04:48:05;;;;;;;14.68;10.98;;;7.00;99.90;;;;;;5067188;28;20118;-65
2022/11/13 04:50:31;;;;;;;11.82;10.63;;;7.00;99.90;;;;;;5063801;28;20036;-65
2022/11/13 04:52:57;;;;;;;11.90;10.70;;;7.00;99.90;;;;;;5050994;28;20058;-65
2022/11/13 04:55:22;;;;;;;13.85;10.80;;;7.00;99.90;;;;;;5085020;28;20032;-65
2022/11/13 04:57:50;;;;;;;13.13;11.30;;;7.00;99.90;;;;;;5063913;28;20031;-64
2022/11/13 05:00:16;;;;;;;12.13;10.45;;;6.90;99.90;;;;;;5063712;28;20049;-65
2022/11/13 05:02:42;;;;;;;12.07;10.85;;;6.90;99.90;;;;;;5063048;28;20048;-65
2022/11/13 05:05:07;;;;;;;13.00;11.20;;;6.90;99.90;;;;;;5064188;28;20361;-65
2022/11/13 05:07:36;;;;;;;13.80;11.15;;;6.90;99.90;;;;;;5061046;28;20047;-65
2022/11/13 05:10:02;;;;;;;12.23;10.93;;;6.90;99.90;;;;;;5061442;28;20469;-65
2022/11/13 05:12:28;;;;;;;13.50;11.82;;;6.90;99.90;;;;;;5064703;28;20047;-66
2022/11/13 05:14:53;;;;;;;13.82;10.70;;;6.90;99.90;;;;;;5043359;28;20052;-65
2022/11/13 05:17:22;;;;;;;13.68;11.02;;;6.80;99.90;;;;;;5060522;28;20461;-65
2022/11/13 05:19:47;;;;;;;16.77;11.32;;;6.80;99.90;;;;;;5048291;28;20135;-64
2022/11/13 05:22:14;;;;;;;11.60;10.40;;;6.80;99.90;;;;;;5065589;28;20440;-65
2022/11/13 05:24:39;;;;;;;13.80;11.82;;;6.70;99.90;;;;;;5048074;28;20091;-65
2022/11/13 05:27:05;;;;;;;13.57;12.15;;;6.70;99.90;;;;;;5045481;28;20401;-65
2022/11/13 05:29:30;;;;;;;13.93;11.85;;;6.70;99.90;;;;;;5067069;28;20156;-65
2022/11/13 05:31:56;;;;;;;14.23;12.82;;;6.60;99.90;;;;;;5066676;28;20112;-66
2022/11/13 05:34:22;;;;;;;15.18;12.35;;;6.60;99.90;;;;;;5063289;28;20039;-65
2022/11/13 05:36:47;;;;;;;14.82;12.15;;;6.50;99.90;;;;;;5061716;28;20123;-65
2022/11/13 05:39:13;;;;;;;15.20;12.27;;;6.50;99.90;;;;;;5048678;28;20109;-64
2022/11/13 05:41:39;;;;;;;14.40;12.90;;;6.40;99.90;;;;;;5065395;28;20055;-65
2022/11/13 05:44:04;;;;;;;14.40;12.52;;;6.30;99.90;;;;;;5058302;28;20040;-66
2022/11/13 05:46:30;;;;;;;13.90;12.35;;;6.30;99.90;;;;;;5058574;28;20119;-65
2022/11/13 05:48:58;;;;;;;15.27;12.63;;;6.30;99.90;;;;;;5061593;28;20424;-67
2022/11/13 05:51:30;;;;;;;12.75;11.45;;;6.30;99.90;;;;;;5061020;28;20032;-65
2022/11/13 05:53:56;;;;;;;12.95;11.52;;;6.40;99.90;;;;;;5060385;28;20123;-65
2022/11/13 05:56:24;;;;;;;13.57;12.02;;;6.40;99.90;;;;;;5076863;28;20071;-64
2022/11/13 05:58:52;;;;;;;13.48;11.75;;;6.50;99.90;;;;;;5063095;28;20036;-64
2022/11/13 06:01:22;;;;;;;12.32;11.02;;;6.50;99.90;;;;;;5060406;28;20358;-65
2022/11/13 06:03:48;;;;;;;13.32;11.93;;;6.50;99.90;;;;;;5063200;28;20346;-65
2022/11/13 06:06:17;;;;;;;12.80;11.38;;;6.50;99.90;;;;;;5060186;28;20571;-65
2022/11/13 06:08:45;;;;;;;13.35;10.55;;;6.50;99.90;;;;;;5059290;28;20032;-65
2022/11/13 06:11:14;;;;;;;13.00;11.60;;;6.50;99.90;;;;;;5065392;28;20029;-64
2022/11/13 06:13:40;;;;;;;13.30;10.90;;;6.50;99.90;;;;;;5061092;28;20085;-67
2022/11/13 06:16:09;;;;;;;16.33;12.30;;;6.40;99.90;;;;;;5060498;28;20029;-64
2022/11/13 06:18:35;;;;;;;14.02;11.63;;;6.40;99.90;;;;;;5054924;28;20033;-65
2022/11/13 06:21:03;;;;;;;14.20;11.10;;;6.40;99.90;;;;;;5061984;28;20349;-65
2022/11/13 06:23:31;;;;;;;13.40;11.80;;;6.30;99.90;;;;;;5065981;28;20194;-64
2022/11/13 06:26:05;;;;;;;13.63;11.90;;;6.30;99.90;;;;;;5058011;28;20435;-67
2022/11/13 06:28:32;;;;;;;14.25;12.15;;;6.30;99.90;;;;;;5066177;28;20069;-65
2022/11/13 06:31:09;;;;;;;16.05;11.75;;;6.30;99.90;;;;;;5043857;28;20040;-65
2022/11/13 06:33:36;;;;;;;14.00;12.20;;;6.30;99.90;;;;;;5061940;28;20182;-65
2022/11/13 06:36:08;;;;;;;12.73;11.25;;;6.30;99.90;;;;;;5061728;28;20048;-65
2022/11/13 06:38:35;;;;;;;12.40;11.10;;;6.20;99.90;;;;;;5067174;28;20469;-65
2022/11/13 06:41:02;;;;;;;12.32;11.02;;;6.20;99.90;;;;;;5066058;28;20093;-65
2022/11/13 06:43:29;;;;;;;16.35;12.32;;;6.20;99.90;;;;;;5098304;28;20182;-66
2022/11/13 06:45:55;;;;;;;13.95;12.55;;;6.20;99.90;;;;;;5080356;28;20043;-65
2022/11/13 06:48:21;;;;;;;13.95;12.32;;;6.10;99.90;;;;;;5081926;28;20036;-64
2022/11/13 06:50:47;;;;;;;13.82;12.25;;;6.10;99.90;;;;;;5062853;28;20032;-67
2022/11/13 06:53:13;;;;;;;13.68;12.18;;;6.10;99.90;;;;;;5081906;28;20353;-65
2022/11/13 06:55:47;;;;;;;16.83;13.55;;;6.10;99.90;;;;;;5098543;28;20341;-66
2022/11/13 06:58:14;;;;;;;14.63;12.65;;;6.10;99.90;;;;;;5098087;28;20090;-64
2022/11/13 07:00:40;;;;;;;14.30;12.80;;;6.10;99.90;;;;;;5082688;28;20043;-65
2022/11/13 07:03:06;;;;;;;15.27;13.68;;;6.00;99.90;;;;;;5079755;28;20031;-65
2022/11/13 07:05:34;;;;;;;17.23;13.40;;;6.00;99.90;;;;;;5061249;28;20032;-64
2022/11/13 07:08:00;;;;;;;14.52;13.00;;;6.00;99.90;;;;;;5099396;28;20348;-65
2022/11/13 07:10:26;;;;;;;13.95;12.45;;;6.00;99.90;;;;;;5082410;28;20050;-64
2022/11/13 07:12:51;;;;;;;14.85;13.07;;;6.10;99.90;;;;;;5081588;28;20067;-65
2022/11/13 07:15:17;;;;;;;15.48;13.05;;;6.10;99.90;;;;;;5077288;28;20035;-66
2022/11/13 07:17:44;;;;;;;14.80;13.23;;;6.10;99.90;;;;;;5059137;28;20265;-65
2022/11/13 07:20:10;;;;;;;14.60;13.10;;;6.10;99.90;;;;;;5104187;28;20130;-66
2022/11/13 07:22:35;;;;;;;14.95;13.02;;;6.10;99.90;;;;;;5088573;28;20414;-65
2022/11/13 07:25:01;;;;;;;14.02;12.52;;;6.10;99.90;;;;;;5090210;28;20096;-66
2022/11/13 07:27:26;;;;;;;15.73;13.30;;;6.10;99.90;;;;;;5083163;28;20492;-65
2022/11/13 07:29:52;;;;;;;14.60;12.80;;;6.20;99.90;;;;;;5086707;28;20097;-65
2022/11/13 07:32:19;;;;;;;14.43;12.88;;;6.30;99.90;;;;;;5086206;28;20071;-67
2022/11/13 07:34:44;;;;;;;15.23;13.40;;;6.30;99.90;;;;;;5103370;28;20397;-65
2022/11/13 07:37:10;;;;;;;16.15;14.45;;;6.40;99.90;;;;;;5103365;28;20031;-66
2022/11/13 07:39:35;;;;;;;16.08;13.65;;;6.50;99.90;;;;;;5078898;28;20491;-65
2022/11/13 07:42:01;;;;;;;14.75;13.15;;;6.60;99.90;;;;;;5086905;28;20459;-66
2022/11/13 07:44:26;;;;;;;17.55;14.63;;;6.60;99.90;;;;;;5083236;28;20096;-65
2022/11/13 07:46:52;;;;;;;16.27;13.15;;;6.70;99.90;;;;;;5088314;28;20316;-66
2022/11/13 07:49:17;;;;;;;16.20;13.57;;;6.80;99.90;;;;;;5087161;28;20070;-66
2022/11/13 07:51:43;;;;;;;14.57;12.80;;;6.80;99.90;;;;;;5087879;28;20044;-66
2022/11/13 07:54:08;;;;;;;14.65;12.75;;;6.90;99.90;;;;;;5088766;28;20332;-68
2022/11/13 07:56:36;;;;;;;15.35;13.38;;;6.90;99.90;;;;;;5088111;28;20368;-66
2022/11/13 07:59:01;;;;;;;15.32;12.85;;;7.00;99.90;;;;;;5084467;28;20100;-65
2022/11/13 08:01:27;;;;;;;17.35;13.05;;;6.90;99.90;;;;;;5077033;28;20035;-66
2022/11/13 08:03:52;;;;;;;14.02;12.63;;;6.90;99.90;;;;;;5079564;28;20492;-66
2022/11/13 08:06:18;;;;;;;14.57;13.02;;;6.90;99.90;;;;;;5100268;28;20040;-66
2022/11/13 08:08:47;;;;;;;14.45;12.90;;;6.90;99.90;;;;;;5072781;28;20143;-66
2022/11/13 08:11:13;;;;;;;14.15;12.68;;;6.90;99.90;;;;;;5076509;28;20040;-68
2022/11/13 08:13:38;;;;;;;15.00;13.40;;;7.00;99.90;;;;;;5095084;28;20511;-66
2022/11/13 08:16:05;;;;;;;14.95;13.15;;;7.00;99.90;;;;;;5078437;28;20551;-70
2022/11/13 08:18:32;;;;;;;14.23;12.73;;;7.10;99.90;;;;;;5069464;28;20038;-66
2022/11/13 08:21:03;;;;;;;14.65;13.05;;;7.20;99.90;;;;;;5107619;28;20054;-67
2022/11/13 08:23:30;;;;;;;15.13;13.55;;;7.40;99.90;;;;;;5107458;28;20047;-66
2022/11/13 08:25:55;;;;;;;14.77;12.93;;;7.50;99.90;;;;;;5080154;28;20396;-66
2022/11/13 08:28:21;;;;;;;13.32;11.93;;;7.60;99.90;;;;;;5086349;28;20119;-67
2022/11/13 08:30:48;;;;;;;13.43;12.02;;;7.80;99.90;;;;;;5087956;28;20108;-64
2022/11/13 08:33:13;;;;;;;17.30;12.07;;;7.90;99.90;;;;;;5085838;28;20071;-65
2022/11/13 08:35:39;;;;;;;13.10;11.70;;;8.00;99.90;;;;;;5083227;28;20095;-66
2022/11/13 08:38:07;;;;;;;12.52;11.23;;;8.20;99.90;;;;;;5098165;28;20047;-64
2022/11/13 08:40:34;;;;;;;13.73;11.50;;;8.30;99.90;;;;;;5067375;28;20045;-65
2022/11/13 08:43:02;;;;;;;14.05;11.70;;;8.50;99.90;;;;;;5062792;28;20467;-64
2022/11/13 08:45:30;;;;;;;13.32;11.05;;;8.60;99.90;;;;;;5062228;28;20116;-65
2022/11/13 08:48:00;;;;;;;11.30;10.15;;;8.70;99.90;;;;;;5082489;28;20035;-65
2022/11/13 08:50:27;;;;;;;11.20;10.05;;;8.80;99.90;;;;;;5062285;28;20064;-63
2022/11/13 08:52:55;;;;;;;11.93;10.73;;;8.90;99.90;;;;;;5066041;28;20067;-64
2022/11/13 08:55:21;;;;;;;11.07;9.88;;;9.00;99.90;;;;;;5062205;28;20040;-64
2022/11/13 08:57:46;;;;;;;11.35;9.88;;;9.10;99.90;;;;;;5060152;28;20642;-64
2022/11/13 09:00:12;;;;;;;12.02;10.20;;;9.20;99.90;;;;;;5064906;28;20073;-64
2022/11/13 09:02:38;;;;;;;10.82;9.73;;;9.30;99.90;;;;;;5082851;28;20487;-63
2022/11/13 09:05:04;;;;;;;12.30;10.02;;;9.40;99.90;;;;;;5064665;28;20172;-64
2022/11/13 09:07:30;;;;;;;10.55;9.45;;;9.50;99.90;;;;;;5066391;28;20043;-63
2022/11/13 09:09:55;;;;;;;11.32;9.80;;;9.60;99.90;;;;;;5081622;28;20068;-65
2022/11/13 09:12:21;;;;;;;10.90;9.68;;;9.70;99.90;;;;;;5062076;28;20485;-64
2022/11/13 09:14:47;;;;;;;11.45;9.55;;;9.80;99.90;;;;;;5062491;28;20036;-64
2022/11/13 09:17:12;;;;;;;12.45;9.40;;;9.90;99.90;;;;;;5064862;28;20040;-64
2022/11/13 09:19:38;;;;;;;10.15;9.00;;;10.00;99.90;;;;;;5065301;28;20385;-64
2022/11/13 09:22:03;;;;;;;10.05;9.05;;;10.10;99.90;;;;;;5065933;28;20369;-63
2022/11/13 09:24:29;;;;;;;10.27;8.80;;;10.10;99.90;;;;;;5066041;28;20035;-64
2022/11/13 09:26:54;;;;;;;10.50;9.27;;;10.20;99.90;;;;;;5060602;28;20131;-64
2022/11/13 09:29:22;;;;;;;10.95;9.38;;;10.30;99.90;;;;;;5064234;28;20031;-66
2022/11/13 09:31:48;;;;;;;9.90;8.88;;;10.40;99.90;;;;;;5032469;28;20044;-62
2022/11/13 09:34:13;;;;;;;9.48;8.43;;;10.40;99.90;;;;;;5063374;28;20045;-63
2022/11/13 09:36:39;;;;;;;10.15;8.48;;;10.40;99.90;;;;;;5081151;28;20385;-65
2022/11/13 09:39:05;;;;;;;10.45;8.63;;;10.50;99.90;;;;;;5064525;28;20433;-63
2022/11/13 09:41:36;;;;;;;11.05;8.40;;;10.60;99.90;;;;;;5061350;28;20137;-63
2022/11/13 09:44:09;;;;;;;9.32;8.35;;;10.70;99.90;;;;;;5060981;28;20041;-63
2022/11/13 09:46:37;;;;;;;10.43;9.10;;;10.70;99.90;;;;;;5063142;28;20541;-62
2022/11/13 09:49:16;;;;;;;10.40;8.55;;;10.80;99.90;;;;;;5061419;28;20104;-64
2022/11/13 09:51:52;;;;;;;9.93;8.48;;;10.90;99.90;;;;;;5060681;28;20476;-64
2022/11/13 09:54:19;;;;;;;10.93;9.07;;;11.00;99.90;;;;;;5062950;28;20045;-63
2022/11/13 09:57:23;;;;;;;10.32;9.13;;;10.90;99.90;;;;;;5062486;28;20484;-64
2022/11/13 10:00:02;;;;;;;9.25;8.30;;;11.00;99.90;;;;;;5076076;28;20434;-63
2022/11/13 10:02:46;;;;;;;11.32;8.52;;;11.10;99.90;;;;;;5060044;28;20074;-63
2022/11/13 10:05:19;;;;;;;10.93;8.65;;;11.10;99.90;;;;;;5066879;28;20063;-62
2022/11/13 10:08:04;;;;;;;9.73;8.73;;;11.20;99.90;;;;;;5062734;28;20032;-64
2022/11/13 10:10:41;;;;;;;9.27;8.20;;;11.20;99.90;;;;;;5062595;28;20127;-64
2022/11/13 10:13:11;;;;;;;9.32;7.95;;;11.30;99.90;;;;;;5075227;28;20434;-64
2022/11/13 10:15:39;;;;;;;8.73;7.82;;;11.40;99.90;;;;;;5063769;28;20419;-64
2022/11/13 10:18:19;;;;;;;8.60;7.70;;;11.40;99.90;;;;;;5063243;28;20051;-64
2022/11/13 10:20:56;;;;;;;11.07;8.57;;;11.50;99.90;;;;;;5066019;28;20101;-63
2022/11/13 10:23:31;;;;;;;9.77;8.05;;;11.60;99.90;;;;;;5067936;28;20047;-63
2022/11/13 10:26:00;;;;;;;;;;;11.70;99.90;;;;;;5076285;28;20067;-63
2022/11/13 10:28:27;;;;;;;8.70;7.63;;;11.80;99.90;;;;;;5048911;28;21216;-62
2022/11/13 10:30:52;;;;;;;9.30;8.10;;;11.90;99.90;;;;;;5060662;28;20449;-62
2022/11/13 10:33:20;;;;;;;10.45;9.35;;;12.00;99.90;;;;;;5062892;28;20467;-64
2022/11/13 10:36:04;;;;;;;9.68;8.65;;;12.10;99.90;;;;;;5060449;28;20122;-63
2022/11/13 10:38:36;;;;;;;9.98;8.88;;;12.20;99.90;;;;;;5085184;28;20121;-63
2022/11/13 10:41:12;;;;;;;10.20;9.10;;;12.30;99.90;;;;;;5101067;28;20392;-63
2022/11/13 10:43:56;;;;;;;9.95;8.65;;;12.30;99.90;;;;;;5082663;28;20104;-63
2022/11/13 10:46:24;;;;;;;;;;;12.30;99.90;;;;;;5102518;28;20396;-62
2022/11/13 10:48:50;;;;;;;11.48;8.88;;;12.30;99.90;;;;;;5102870;28;19923;-63
2022/11/13 10:51:25;;;;;;;8.93;8.02;;;12.30;99.90;;;;;;5079798;28;20032;-62
2022/11/13 10:53:56;;;;;;;9.88;8.52;;;12.50;99.90;;;;;;5079243;28;20043;-63
2022/11/13 10:56:29;;;;;;;9.77;8.52;;;12.50;99.90;;;;;;5077500;28;20077;-63
2022/11/13 10:59:15;;;;;;;9.37;8.37;;;12.50;99.90;;;;;;5104206;28;20053;-64
2022/11/13 11:01:42;;;;;;;9.40;8.40;;;12.50;99.90;;;;;;5103736;28;20043;-62
2022/11/13 11:04:18;;;;;;;9.50;8.50;;;12.60;99.90;;;;;;5101045;28;20042;-62
2022/11/13 11:06:44;;;;;;;9.02;8.15;;;12.60;99.90;;;;;;5083687;28;20476;-63
2022/11/13 11:09:28;;;;;;;10.27;7.95;;;12.70;99.90;;;;;;5086283;28;20114;-62
2022/11/13 11:12:19;;;;;;;8.83;6.90;;;12.80;99.90;;;;;;5096893;28;20039;-63
2022/11/13 11:15:00;;;;;;;8.85;7.88;;;12.80;99.90;;;;;;5078665;28;20416;-62
2022/11/13 11:17:52;;;;;;;8.52;7.57;;;12.90;99.90;;;;;;5098996;28;20035;-62
2022/11/13 11:20:40;;;;;;;9.00;7.50;;;13.00;99.90;;;;;;5082638;28;20032;-60
2022/11/13 11:23:27;;;;;;;9.98;7.25;;;13.00;99.90;;;;;;5080638;28;20269;-61
2022/11/13 11:26:00;;;;;;;9.98;7.57;;;13.10;99.90;;;;;;5078008;28;20044;-63
2022/11/13 11:28:25;;;;;;;13.38;9.65;;;13.20;99.90;;;;;;5082478;28;20050;-62
2022/11/13 11:31:26;;;;;;;8.13;6.50;;;13.20;99.90;;;;;;5099786;28;20379;-62
2022/11/13 11:34:01;;;;;;;8.77;7.50;;;13.30;99.90;;;;;;5080717;28;20051;-63
2022/11/13 11:36:53;;;;;;;9.82;7.22;;;13.30;99.90;;;;;;5101783;28;20078;-62
2022/11/13 11:39:37;;;;;;;7.32;6.05;;;13.30;99.90;;;;;;5068098;28;20052;-62
2022/11/13 11:42:28;;;;;;;9.18;6.60;;;13.40;99.90;;;;;;5085304;28;20135;-62
2022/11/13 11:45:01;;;;;;;7.53;6.07;;;13.50;99.90;;;;;;5089995;28;20105;-62
2022/11/13 11:47:27;;;;;;;7.20;5.70;;;13.50;99.90;;;;;;5108895;28;20059;-62
2022/11/13 11:49:54;;;;;;;7.68;5.82;;;13.50;99.90;;;;;;5110029;28;20047;-63
2022/11/13 11:52:22;;;;;;;6.70;5.95;;;13.50;99.90;;;;;;5087758;28;20050;-63
2022/11/13 11:55:06;;;;;;;7.07;5.45;;;13.50;99.90;;;;;;5107014;28;20134;-62
2022/11/13 11:58:01;;;;;;;6.90;6.03;;;13.60;99.90;;;;;;5107809;28;20035;-63
2022/11/13 12:00:31;;;;;;;7.07;5.97;;;13.70;99.90;;;;;;5104981;28;20032;-62
2022/11/13 12:03:06;;;;;;;7.05;5.78;;;13.60;99.90;;;;;;5084797;28;20048;-63
2022/11/13 12:06:00;;;;;;;8.75;6.03;;;13.60;99.90;;;;;;5086529;28;20047;-63
2022/11/13 12:08:43;;;;;;;7.20;5.55;;;13.70;99.90;;;;;;5105230;28;20118;-67
2022/11/13 12:11:16;;;;;;;6.18;4.90;;;13.60;99.90;;;;;;5102292;28;20054;-64
2022/11/13 12:14:02;;;;;;;6.95;5.32;;;13.70;99.90;;;;;;5104172;28;20046;-63
2022/11/13 12:16:58;;;;;;;7.70;5.25;;;13.70;99.90;;;;;;5108115;28;20043;-62
2022/11/13 12:19:48;;;;;;;5.82;5.05;;;13.70;99.90;;;;;;5099261;28;20080;-66
2022/11/13 12:22:31;;;;;;;6.93;5.15;;;13.80;99.90;;;;;;5080873;28;20331;-63
2022/11/13 12:24:57;;;;;;;6.10;5.30;;;13.80;99.90;;;;;;5100516;28;20046;-63
2022/11/13 12:27:36;;;;;;;8.57;6.80;;;13.80;99.90;;;;;;5103619;28;20032;-64
2022/11/13 12:30:19;;;;;;;7.35;6.53;;;13.80;99.90;;;;;;5067311;28;20051;-62
2022/11/13 12:33:05;;;;;;;9.15;6.93;;;13.90;99.90;;;;;;5089289;28;20046;-64
2022/11/13 12:35:31;;;;;;;7.70;6.88;;;13.90;99.90;;;;;;5107339;28;20099;-64
2022/11/13 12:38:07;;;;;;;8.90;7.05;;;14.00;99.90;;;;;;5103221;28;20425;-65
2022/11/13 12:40:41;;;;;;;7.65;6.55;;;14.00;99.90;;;;;;5103400;28;20110;-65
2022/11/13 12:43:24;;;;;;;7.82;7.03;;;14.00;99.90;;;;;;5083057;28;20040;-65
2022/11/13 12:45:53;;;;;;;8.70;7.30;;;14.00;99.90;;;;;;5066884;28;20067;-65
2022/11/13 12:48:20;;;;;;;8.40;6.82;;;14.00;99.90;;;;;;5085272;28;20575;-65
2022/11/13 12:51:01;;;;;;;7.72;6.85;;;14.10;99.90;;;;;;5083349;28;20052;-64